Terminal Aerodrome Forecast
Issued by NWS Omaha/Valley, NE

Home | Current Version | Previous Version | Graphics & Text | Print | Product List | Glossary On
Versions: 1 2 3 4 5 6 7 8 9 10 11 12 13 14 15 16 17 18 19 20 21 22 23 24 25 26 27 28 29 30 31 32 33 34 35 36 37 38
903
FTUS43 KOAX 201328 AAA
TAFOFK
TAF AMD
KOFK 201328Z 2013/2112 18010KT P6SM OVC070
      TEMPO 2013/2015 5SM BR
     FM201700 27014KT P6SM BKN100
     FM201900 30016G24KT P6SM SCT140
     FM202300 31010KT P6SM FEW200
     FM210500 22004KT P6SM SKC=

USA.gov is the U.S. government's official web portal to all federal, state and local government web resources and services.